| time (UTC) | temp F | wind direction | speed MPH | gust MPH | rain 1hr in | rain 24hr in | rain mn in | humidity % | barometer mb |
| 20260903151559 | 55 | 153 | 1.0 | 6.0 | 0.00 | 0.22 | 0.05 | 90 | 1008.8 |
| 20260903150015 | 55 | 187 | 0.0 | 3.0 | 0.00 | 0.22 | 0.05 | 92 | 1008.6 |
| 20260903144535 | 55 | 191 | 0.0 | 3.0 | 0.00 | 0.22 | 0.05 | 92 | 1008.5 |
| 20260903143040 | 54 | 193 | 0.0 | 3.0 | 0.01 | 0.22 | 0.05 | 92 | 1008.4 |
| 20260903141522 | 54 | 195 | 1.0 | 3.0 | 0.01 | 0.22 | 0.05 | 91 | 1008.3 |
| 20260903140036 | 54 | 178 | 0.0 | 5.0 | 0.01 | 0.22 | 0.05 | 91 | 1008.2 |
| 20260903134513 | 54 | 185 | 1.0 | 4.0 | 0.01 | 0.22 | 0.05 | 91 | 1008.1 |
| 20260903133033 | 54 | 165 | 2.0 | 6.0 | 0.01 | 0.21 | 0.04 | 91 | 1008.1 |
| 20260903131601 | 54 | 173 | 0.0 | 5.0 | 0.02 | 0.21 | 0.04 | 91 | 1008.0 |
| 20260903130006 | 54 | 169 | 2.0 | 5.0 | 0.03 | 0.21 | 0.04 | 91 | 1007.9 |
| 20260903124552 | 54 | 179 | 0.0 | 3.0 | 0.03 | 0.21 | 0.04 | 90 | 1007.9 |
| 20260903123043 | 55 | 179 | 1.0 | 4.0 | 0.02 | 0.20 | 0.03 | 88 | 1007.9 |
| 20260903121610 | 55 | 181 | 1.0 | 4.0 | 0.01 | 0.19 | 0.02 | 87 | 1007.9 |
| 20260903120034 | 55 | 173 | 1.0 | 4.0 | 0.00 | 0.18 | 0.01 | 84 | 1007.8 |
| 20260903114518 | 55 | 172 | 0.0 | 0.0 | 0.00 | 0.18 | 0.01 | 84 | 1007.7 |
| 20260903113006 | 56 | 172 | 0.0 | 2.0 | 0.00 | 0.18 | 0.01 | 83 | 1007.6 |
| 20260903111548 | 56 | 172 | 0.0 | 1.0 | 0.00 | 0.18 | 0.01 | 82 | 1007.5 |
| 20260903110008 | 56 | 172 | 0.0 | 3.0 | 0.00 | 0.18 | 0.01 | 82 | 1007.3 |
| 20260903104542 | 55 | 163 | 2.0 | 6.0 | 0.00 | 0.18 | 0.01 | 84 | 1007.4 |
| 20260903103015 | 55 | 158 | 1.0 | 5.0 | 0.00 | 0.18 | 0.01 | 86 | 1007.4 |
| 20260903101527 | 55 | 158 | 0.0 | 2.0 | 0.00 | 0.18 | 0.01 | 85 | 1007.3 |
| 20260903100100 | 55 | 158 | 0.0 | 5.0 | 0.00 | 0.18 | 0.01 | 84 | 1007.3 |
| 20260903100001 | 55 | 158 | 0.0 | 5.0 | 0.00 | 0.18 | 0.01 | 84 | 1007.3 |
| 20260903094535 | 55 | 149 | 0.0 | 2.0 | 0.01 | 0.18 | 0.01 | 87 | 1007.4 |
| 20260903093102 | 55 | 149 | 1.0 | 3.0 | 0.01 | 0.18 | 0.01 | 87 | 1007.3 |
| 20260903091511 | 55 | 149 | 0.0 | 2.0 | 0.01 | 0.18 | 0.01 | 87 | 1007.3 |
| 20260903090100 | 55 | 149 | 0.0 | 2.0 | 0.01 | 0.18 | 0.01 | 86 | 1007.3 |
| 20260903084516 | 56 | 149 | 0.0 | 1.0 | 0.00 | 0.17 | 0.00 | 85 | 1007.3 |
| 20260903083024 | 56 | 149 | 0.0 | 5.0 | 0.00 | 0.17 | 0.00 | 84 | 1007.3 |
| 20260903081537 | 56 | 174 | 0.0 | 4.0 | 0.00 | 0.17 | 0.00 | 83 | 1007.1 |
| 20260903080049 | 56 | 174 | 2.0 | 5.0 | 0.00 | 0.17 | 0.00 | 82 | 1007.1 |
| 20260903074539 | 57 | 175 | 0.0 | 4.0 | 0.00 | 0.17 | 0.00 | 82 | 1007.1 |
| 20260903073024 | 57 | 169 | 2.0 | 5.0 | 0.00 | 0.17 | 0.00 | 82 | 1007.0 |
| 20260903071509 | 56 | 174 | 1.0 | 4.0 | 0.00 | 0.17 | 0.00 | 83 | 1007.0 |
| 20260903070007 | 56 | 177 | 0.0 | 4.0 | 0.00 | 0.17 | 0.00 | 83 | 1006.9 |
| 20260903064550 | 57 | 177 | 1.0 | 5.0 | 0.00 | 0.17 | 0.17 | 83 | 1006.9 |
| 20260903063005 | 57 | 170 | 2.0 | 6.0 | 0.00 | 0.17 | 0.17 | 83 | 1006.9 |
| 20260903061559 | 56 | 172 | 1.0 | 5.0 | 0.00 | 0.17 | 0.17 | 84 | 1006.9 |
| 20260903060017 | 56 | 179 | 2.0 | 4.0 | 0.00 | 0.17 | 0.17 | 85 | 1007.0 |
| 20260903054535 | 56 | 174 | 1.0 | 4.0 | 0.00 | 0.17 | 0.17 | 87 | 1006.9 |
| 20260903053058 | 55 | 174 | 1.0 | 4.0 | 0.00 | 0.17 | 0.17 | 88 | 1007.0 |
| 20260903051508 | 55 | 173 | 0.0 | 3.0 | 0.00 | 0.17 | 0.17 | 89 | 1007.0 |
| 20260903050056 | 56 | 172 | 0.0 | 2.0 | 0.00 | 0.17 | 0.17 | 89 | 1006.9 |
| 20260903044542 | 56 | 170 | 1.0 | 5.0 | 0.00 | 0.17 | 0.17 | 90 | 1006.9 |
| 20260903043012 | 56 | 179 | 0.0 | 2.0 | 0.00 | 0.17 | 0.17 | 90 | 1006.8 |
| 20260903041558 | 57 | 179 | 0.0 | 3.0 | 0.00 | 0.17 | 0.17 | 90 | 1006.7 |
| 20260903040023 | 58 | 181 | 0.0 | 3.0 | 0.00 | 0.17 | 0.17 | 88 | 1006.6 |
| 20260903034526 | 58 | 181 | 1.0 | 5.0 | 0.00 | 0.17 | 0.17 | 88 | 1006.3 |
| 20260903033046 | 59 | 205 | 2.0 | 6.0 | 0.00 | 0.17 | 0.17 | 86 | 1006.3 |
| 20260903031553 | 59 | 179 | 3.0 | 6.0 | 0.00 | 0.17 | 0.17 | 85 | 1006.2 |
| 20260903030021 | 59 | 172 | 2.0 | 7.0 | 0.00 | 0.17 | 0.17 | 83 | 1005.9 |
| 20260903024525 | 59 | 161 | 2.0 | 9.0 | 0.00 | 0.18 | 0.17 | 82 | 1005.6 |
| 20260903023052 | 60 | 198 | 5.0 | 12.0 | 0.00 | 0.18 | 0.17 | 83 | 1005.5 |
| 20260903021545 | 60 | 214 | 5.0 | 9.0 | 0.00 | 0.18 | 0.17 | 83 | 1005.3 |
| 20260903020053 | 60 | 185 | 5.0 | 10.0 | 0.00 | 0.18 | 0.17 | 81 | 1005.1 |
| 20260903014550 | 60 | 212 | 3.0 | 12.0 | 0.00 | 0.18 | 0.17 | 82 | 1005.2 |
| 20260903013100 | 61 | 206 | 4.0 | 9.0 | 0.00 | 0.18 | 0.17 | 83 | 1005.0 |
| 20260903011510 | 60 | 189 | 5.0 | 11.0 | 0.00 | 0.18 | 0.17 | 85 | 1004.8 |
| 20260903010003 | 60 | 220 | 5.0 | 10.0 | 0.05 | 0.18 | 0.17 | 89 | 1004.6 |
| 20260903004516 | 60 | 162 | 7.0 | 12.0 | 0.05 | 0.18 | 0.17 | 91 | 1004.5 |
| 20260903003029 | 59 | 211 | 4.0 | 11.0 | 0.05 | 0.18 | 0.17 | 92 | 1004.4 |
| 20260903001542 | 59 | 181 | 5.0 | 12.0 | 0.05 | 0.18 | 0.17 | 92 | 1004.5 |
| 20260903000040 | 60 | 224 | 2.0 | 4.0 | 0.00 | 0.13 | 0.12 | 93 | 1004.4 |
| 20260902234513 | 60 | 156 | 0.0 | 2.0 | 0.01 | 0.13 | 0.12 | 93 | 1003.9 |
| 20260902233059 | 60 | 157 | 0.0 | 2.0 | 0.03 | 0.13 | 0.12 | 93 | 1003.9 |
| 20260902233002 | 60 | 156 | 0.0 | 2.0 | 0.03 | 0.13 | 0.12 | 93 | 1003.9 |
| 20260902231541 | 60 | 100 | 0.0 | 1.0 | 0.05 | 0.13 | 0.12 | 93 | 1003.9 |
| 20260902230104 | 59 | 103 | 1.0 | 4.0 | 0.05 | 0.13 | 0.12 | 92 | 1003.8 |
| 20260902224507 | 59 | 114 | 2.0 | 6.0 | 0.06 | 0.12 | 0.11 | 91 | 1003.8 |
| 20260902223024 | 59 | 170 | 0.0 | 5.0 | 0.04 | 0.10 | 0.09 | 91 | 1003.9 |
| 20260902221505 | 60 | 191 | 1.0 | 7.0 | 0.03 | 0.08 | 0.07 | 89 | 1003.9 |
| 20260902220035 | 59 | 180 | 3.0 | 6.0 | 0.03 | 0.08 | 0.07 | 89 | 1003.8 |
| 20260902214519 | 60 | 193 | 2.0 | 6.0 | 0.02 | 0.06 | 0.05 | 87 | 1004.1 |
| 20260902213017 | 60 | 171 | 2.0 | 6.0 | 0.03 | 0.06 | 0.05 | 86 | 1004.1 |
| 20260902211505 | 60 | 201 | 2.0 | 9.0 | 0.03 | 0.05 | 0.04 | 84 | 1004.1 |
| 20260902210043 | 61 | 218 | 3.0 | 10.0 | 0.03 | 0.05 | 0.04 | 83 | 1004.0 |
| 20260902204539 | 61 | 197 | 3.0 | 8.0 | 0.02 | 0.04 | 0.03 | 80 | 1004.0 |
| 20260902203053 | 62 | 193 | 6.0 | 12.0 | 0.01 | 0.03 | 0.02 | 76 | 1004.1 |
| 20260902201528 | 63 | 187 | 6.0 | 15.0 | 0.00 | 0.02 | 0.01 | 74 | 1004.1 |
| 20260902200053 | 64 | 221 | 6.0 | 20.0 | 0.00 | 0.02 | 0.01 | 73 | 1004.3 |
| 20260902194504 | 63 | 225 | 7.0 | 12.0 | 0.01 | 0.02 | 0.01 | 76 | 1004.4 |
| 20260902193026 | 62 | 182 | 4.0 | 8.0 | 0.01 | 0.02 | 0.01 | 79 | 1004.5 |
| 20260902191627 | 62 | 207 | 3.0 | 11.0 | 0.01 | 0.02 | 0.01 | 80 | 1004.6 |
| 20260902183106 | 67 | 172 | 6.0 | 11.0 | 0.00 | 0.01 | 0.00 | 60 | 1004.5 |
| 20260902183001 | 67 | 231 | 5.0 | 11.0 | 0.00 | 0.01 | 0.00 | 59 | 1004.5 |
| 20260902181556 | 67 | 214 | 4.0 | 9.0 | 0.00 | 0.01 | 0.00 | 61 | 1004.6 |
| 20260902180036 | 66 | 182 | 4.0 | 10.0 | 0.00 | 0.01 | 0.00 | 64 | 1004.8 |
| 20260902174554 | 65 | 179 | 2.0 | 7.0 | 0.00 | 0.01 | 0.00 | 67 | 1004.9 |
| 20260902173051 | 64 | 189 | 2.0 | 5.0 | 0.00 | 0.01 | 0.00 | 67 | 1005.1 |
| 20260902171557 | 64 | 182 | 2.0 | 7.0 | 0.00 | 0.01 | 0.00 | 68 | 1005.3 |
| 20260902170028 | 63 | 174 | 2.0 | 5.0 | 0.00 | 0.01 | 0.00 | 71 | 1005.4 |
| 20260902164549 | 63 | 173 | 3.0 | 6.0 | 0.00 | 0.01 | 0.00 | 71 | 1005.6 |
| 20260902163008 | 63 | 181 | 0.0 | 3.0 | 0.00 | 0.01 | 0.00 | 74 | 1005.8 |
| 20260902161517 | 63 | 180 | 1.0 | 5.0 | 0.00 | 0.01 | 0.00 | 74 | 1005.9 |
| 20260902160009 | 62 | 184 | 2.0 | 6.0 | 0.00 | 0.01 | 0.00 | 74 | 1005.9 |
| 20260902154547 | 62 | 168 | 3.0 | 6.0 | 0.00 | 0.01 | 0.00 | 76 | 1006.1 |
| 20260902153054 | 62 | 177 | 1.0 | 4.0 | 0.00 | 0.01 | 0.00 | 78 | 1006.3 |